sensor_id;sensor_type;location;lat;lon;timestamp;pressure;altitude;pressure_sealevel;temperature;humidity
47815;BME280;33579;50.058;18.130;2023-05-11T00:00:13;99314.16;;;14.30;96.87
47815;BME280;33579;50.058;18.130;2023-05-11T00:01:15;99322.78;;;14.32;95.74
47815;BME280;33579;50.058;18.130;2023-05-11T00:02:17;99321.81;;;14.33;95.48
47815;BME280;33579;50.058;18.130;2023-05-11T00:03:19;99319.47;;;14.30;94.70
47815;BME280;33579;50.058;18.130;2023-05-11T00:04:20;99319.63;;;14.28;94.66
47815;BME280;33579;50.058;18.130;2023-05-11T00:05:22;99314.47;;;14.27;94.50
47815;BME280;33579;50.058;18.130;2023-05-11T00:06:24;99318.47;;;14.31;94.08
47815;BME280;33579;50.058;18.130;2023-05-11T00:07:25;99319.16;;;14.33;93.79
47815;BME280;33579;50.058;18.130;2023-05-11T00:08:27;99319.09;;;14.25;94.51
47815;BME280;33579;50.058;18.130;2023-05-11T00:09:28;99320.47;;;14.11;95.43
47815;BME280;33579;50.058;18.130;2023-05-11T00:10:30;99322.59;;;14.07;95.70
47815;BME280;33579;50.058;18.130;2023-05-11T00:11:31;99325.09;;;14.09;93.08
47815;BME280;33579;50.058;18.130;2023-05-11T00:12:33;99312.84;;;14.08;93.08
47815;BME280;33579;50.058;18.130;2023-05-11T00:13:35;99324.56;;;14.05;93.76
47815;BME280;33579;50.058;18.130;2023-05-11T00:14:36;99324.28;;;14.08;93.88
47815;BME280;33579;50.058;18.130;2023-05-11T00:15:38;99321.16;;;14.13;93.22
47815;BME280;33579;50.058;18.130;2023-05-11T00:16:39;99324.41;;;14.07;92.84
47815;BME280;33579;50.058;18.130;2023-05-11T00:17:41;99320.94;;;14.06;92.82
47815;BME280;33579;50.058;18.130;2023-05-11T00:18:43;99325.25;;;14.07;92.74
47815;BME280;33579;50.058;18.130;2023-05-11T00:19:44;99331.81;;;14.03;92.81
47815;BME280;33579;50.058;18.130;2023-05-11T00:20:46;99329.19;;;14.03;92.64
47815;BME280;33579;50.058;18.130;2023-05-11T00:21:47;99327.16;;;13.97;93.16
47815;BME280;33579;50.058;18.130;2023-05-11T00:22:49;99322.38;;;14.00;93.12
47815;BME280;33579;50.058;18.130;2023-05-11T00:23:50;99326.09;;;14.08;92.55
47815;BME280;33579;50.058;18.130;2023-05-11T00:24:52;99318.69;;;14.11;92.47
47815;BME280;33579;50.058;18.130;2023-05-11T00:25:54;99320.03;;;14.15;92.97
47815;BME280;33579;50.058;18.130;2023-05-11T00:26:55;99321.06;;;14.23;93.66
47815;BME280;33579;50.058;18.130;2023-05-11T00:27:57;99321.78;;;14.07;94.03
47815;BME280;33579;50.058;18.130;2023-05-11T00:28:58;99325.19;;;13.99;95.05
47815;BME280;33579;50.058;18.130;2023-05-11T00:30:00;99323.38;;;13.81;95.52
47815;BME280;33579;50.058;18.130;2023-05-11T00:31:01;99325.19;;;13.62;97.05
47815;BME280;33579;50.058;18.130;2023-05-11T00:32:03;99321.78;;;13.52;98.22
47815;BME280;33579;50.058;18.130;2023-05-11T00:33:04;99326.00;;;13.45;99.34
47815;BME280;33579;50.058;18.130;2023-05-11T00:34:06;99323.25;;;13.37;100.00
47815;BME280;33579;50.058;18.130;2023-05-11T00:35:09;99331.94;;;13.29;100.00
47815;BME280;33579;50.058;18.130;2023-05-11T00:36:11;99321.72;;;13.34;100.00
47815;BME280;33579;50.058;18.130;2023-05-11T00:37:12;99327.81;;;13.44;100.00
47815;BME280;33579;50.058;18.130;2023-05-11T00:38:14;99324.44;;;13.52;99.74
47815;BME280;33579;50.058;18.130;2023-05-11T00:39:16;99325.41;;;13.51;99.30
47815;BME280;33579;50.058;18.130;2023-05-11T00:40:17;99330.41;;;13.54;98.86
47815;BME280;33579;50.058;18.130;2023-05-11T00:41:19;99328.81;;;13.61;97.78
47815;BME280;33579;50.058;18.130;2023-05-11T00:42:21;99329.94;;;13.59;97.53
47815;BME280;33579;50.058;18.130;2023-05-11T00:43:22;99321.56;;;13.63;96.91
47815;BME280;33579;50.058;18.130;2023-05-11T00:44:24;99329.34;;;13.65;96.58
47815;BME280;33579;50.058;18.130;2023-05-11T00:45:26;99326.94;;;13.72;96.33
47815;BME280;33579;50.058;18.130;2023-05-11T00:46:28;99320.66;;;13.73;96.95
47815;BME280;33579;50.058;18.130;2023-05-11T00:47:30;99327.00;;;13.80;96.15
47815;BME280;33579;50.058;18.130;2023-05-11T00:48:31;99326.56;;;13.85;95.43
47815;BME280;33579;50.058;18.130;2023-05-11T00:49:33;99322.56;;;13.81;95.21
47815;BME280;33579;50.058;18.130;2023-05-11T00:50:35;99319.00;;;13.72;94.82
47815;BME280;33579;50.058;18.130;2023-05-11T00:51:37;99321.19;;;13.58;95.53
47815;BME280;33579;50.058;18.130;2023-05-11T00:52:40;99320.94;;;13.52;95.99
47815;BME280;33579;50.058;18.130;2023-05-11T00:53:42;99316.06;;;13.57;95.56
47815;BME280;33579;50.058;18.130;2023-05-11T00:54:44;99319.38;;;13.59;95.63
47815;BME280;33579;50.058;18.130;2023-05-11T00:55:47;99320.44;;;13.66;95.97
47815;BME280;33579;50.058;18.130;2023-05-11T00:56:48;99318.69;;;13.57;97.30
47815;BME280;33579;50.058;18.130;2023-05-11T00:57:50;99324.34;;;13.44;98.46
47815;BME280;33579;50.058;18.130;2023-05-11T00:58:52;99328.00;;;13.33;99.07
47815;BME280;33579;50.058;18.130;2023-05-11T00:59:53;99328.44;;;13.28;99.92
47815;BME280;33579;50.058;18.130;2023-05-11T01:00:55;99325.34;;;13.33;98.98
47815;BME280;33579;50.058;18.130;2023-05-11T01:01:57;99322.41;;;13.36;98.14
47815;BME280;33579;50.058;18.130;2023-05-11T01:02:59;99326.84;;;13.45;97.72
47815;BME280;33579;50.058;18.130;2023-05-11T01:04:02;99329.47;;;13.45;99.05
47815;BME280;33579;50.058;18.130;2023-05-11T01:05:04;99323.22;;;13.46;99.38
47815;BME280;33579;50.058;18.130;2023-05-11T01:07:19;99321.56;;;13.45;99.27
47815;BME280;33579;50.058;18.130;2023-05-11T01:08:27;99322.78;;;13.51;99.10
47815;BME280;33579;50.058;18.130;2023-05-11T01:13:25;99316.63;;;13.51;97.51
47815;BME280;33579;50.058;18.130;2023-05-11T01:15:37;99324.47;;;13.42;97.86
47815;BME280;33579;50.058;18.130;2023-05-11T01:16:27;99327.09;;;13.24;98.45
47815;BME280;33579;50.058;18.130;2023-05-11T01:18:51;99323.06;;;13.20;98.69
47815;BME280;33579;50.058;18.130;2023-05-11T01:20:02;99326.28;;;13.14;99.04
47815;BME280;33579;50.058;18.130;2023-05-11T01:21:07;99326.44;;;13.12;99.47
47815;BME280;33579;50.058;18.130;2023-05-11T01:22:27;99324.94;;;13.10;100.00
47815;BME280;33579;50.058;18.130;2023-05-11T01:27:55;99322.38;;;12.90;100.00
47815;BME280;33579;50.058;18.130;2023-05-11T01:29:18;99321.50;;;12.99;100.00
47815;BME280;33579;50.058;18.130;2023-05-11T01:31:53;99325.13;;;12.98;100.00
47815;BME280;33579;50.058;18.130;2023-05-11T01:32:59;99320.41;;;12.92;100.00
47815;BME280;33579;50.058;18.130;2023-05-11T01:34:06;99323.75;;;12.94;100.00
47815;BME280;33579;50.058;18.130;2023-05-11T01:35:16;99323.97;;;13.01;100.00
47815;BME280;33579;50.058;18.130;2023-05-11T01:36:19;99319.25;;;13.04;100.00
47815;BME280;33579;50.058;18.130;2023-05-11T01:37:25;99322.97;;;13.12;100.00
47815;BME280;33579;50.058;18.130;2023-05-11T01:38:31;99325.31;;;13.15;100.00
47815;BME280;33579;50.058;18.130;2023-05-11T01:39:41;99320.72;;;13.17;100.00
47815;BME280;33579;50.058;18.130;2023-05-11T01:40:55;99317.09;;;13.18;100.00
47815;BME280;33579;50.058;18.130;2023-05-11T01:42:04;99323.06;;;13.20;100.00
47815;BME280;33579;50.058;18.130;2023-05-11T01:43:11;99313.56;;;13.27;100.00
47815;BME280;33579;50.058;18.130;2023-05-11T01:44:15;99316.31;;;13.35;100.00
47815;BME280;33579;50.058;18.130;2023-05-11T01:45:19;99319.03;;;13.44;100.00
47815;BME280;33579;50.058;18.130;2023-05-11T01:46:25;99321.41;;;13.47;100.00
47815;BME280;33579;50.058;18.130;2023-05-11T01:47:28;99324.19;;;13.45;100.00
47815;BME280;33579;50.058;18.130;2023-05-11T01:48:33;99319.31;;;13.41;100.00
47815;BME280;33579;50.058;18.130;2023-05-11T01:49:36;99324.19;;;13.45;100.00
47815;BME280;33579;50.058;18.130;2023-05-11T01:50:38;99323.63;;;13.42;100.00
47815;BME280;33579;50.058;18.130;2023-05-11T01:51:42;99322.94;;;13.40;100.00
47815;BME280;33579;50.058;18.130;2023-05-11T01:52:47;99314.88;;;13.41;100.00
47815;BME280;33579;50.058;18.130;2023-05-11T01:53:51;99315.47;;;13.35;100.00
47815;BME280;33579;50.058;18.130;2023-05-11T01:54:54;99324.47;;;13.14;100.00
47815;BME280;33579;50.058;18.130;2023-05-11T01:55:58;99327.06;;;12.96;100.00
47815;BME280;33579;50.058;18.130;2023-05-11T01:57:01;99319.19;;;12.86;100.00
47815;BME280;33579;50.058;18.130;2023-05-11T01:58:04;99329.69;;;12.96;100.00
47815;BME280;33579;50.058;18.130;2023-05-11T01:59:07;99322.91;;;12.93;100.00
47815;BME280;33579;50.058;18.130;2023-05-11T02:00:11;99336.00;;;12.85;100.00
47815;BME280;33579;50.058;18.130;2023-05-11T02:01:15;99321.47;;;12.71;100.00
47815;BME280;33579;50.058;18.130;2023-05-11T02:02:18;99331.94;;;12.63;100.00
47815;BME280;33579;50.058;18.130;2023-05-11T02:03:20;99328.44;;;12.62;100.00
47815;BME280;33579;50.058;18.130;2023-05-11T02:04:24;99327.63;;;12.62;100.00
47815;BME280;33579;50.058;18.130;2023-05-11T02:05:27;99332.47;;;12.67;100.00
47815;BME280;33579;50.058;18.130;2023-05-11T02:06:33;99318.97;;;12.70;100.00
47815;BME280;33579;50.058;18.130;2023-05-11T02:07:37;99329.03;;;12.56;100.00
47815;BME280;33579;50.058;18.130;2023-05-11T02:08:41;99334.72;;;12.51;100.00
47815;BME280;33579;50.058;18.130;2023-05-11T02:09:43;99333.47;;;12.56;100.00
47815;BME280;33579;50.058;18.130;2023-05-11T02:10:47;99330.44;;;12.50;100.00
47815;BME280;33579;50.058;18.130;2023-05-11T02:11:50;99335.72;;;12.50;100.00
47815;BME280;33579;50.058;18.130;2023-05-11T02:12:54;99332.47;;;12.57;100.00
47815;BME280;33579;50.058;18.130;2023-05-11T02:13:58;99332.22;;;12.60;100.00
47815;BME280;33579;50.058;18.130;2023-05-11T02:15:02;99325.81;;;12.62;100.00
47815;BME280;33579;50.058;18.130;2023-05-11T02:16:05;99342.47;;;12.63;100.00
47815;BME280;33579;50.058;18.130;2023-05-11T02:17:08;99333.88;;;12.51;100.00
47815;BME280;33579;50.058;18.130;2023-05-11T02:18:13;99342.66;;;12.51;100.00
47815;BME280;33579;50.058;18.130;2023-05-11T02:19:15;99335.69;;;12.60;100.00
47815;BME280;33579;50.058;18.130;2023-05-11T02:20:18;99338.59;;;12.57;100.00
47815;BME280;33579;50.058;18.130;2023-05-11T02:21:21;99337.50;;;12.60;100.00
47815;BME280;33579;50.058;18.130;2023-05-11T02:22:24;99332.06;;;12.61;100.00
47815;BME280;33579;50.058;18.130;2023-05-11T02:23:26;99334.56;;;12.63;100.00
47815;BME280;33579;50.058;18.130;2023-05-11T02:24:29;99332.34;;;12.58;100.00
47815;BME280;33579;50.058;18.130;2023-05-11T02:25:31;99333.03;;;12.60;100.00
47815;BME280;33579;50.058;18.130;2023-05-11T02:26:33;99333.47;;;12.56;100.00
47815;BME280;33579;50.058;18.130;2023-05-11T02:27:35;99329.50;;;12.32;100.00
47815;BME280;33579;50.058;18.130;2023-05-11T02:28:37;99334.75;;;12.32;100.00
47815;BME280;33579;50.058;18.130;2023-05-11T02:29:39;99335.44;;;12.34;100.00
47815;BME280;33579;50.058;18.130;2023-05-11T02:30:45;99338.53;;;12.29;100.00
47815;BME280;33579;50.058;18.130;2023-05-11T02:31:48;99338.13;;;12.14;100.00
47815;BME280;33579;50.058;18.130;2023-05-11T02:32:54;99331.75;;;12.17;100.00
47815;BME280;33579;50.058;18.130;2023-05-11T02:34:08;99342.28;;;12.27;100.00
47815;BME280;33579;50.058;18.130;2023-05-11T02:35:24;99340.06;;;12.22;100.00
47815;BME280;33579;50.058;18.130;2023-05-11T02:36:29;99335.34;;;12.06;100.00
47815;BME280;33579;50.058;18.130;2023-05-11T02:37:38;99333.09;;;12.01;100.00
47815;BME280;33579;50.058;18.130;2023-05-11T02:38:42;99330.06;;;12.06;100.00
47815;BME280;33579;50.058;18.130;2023-05-11T02:39:51;99332.88;;;12.04;100.00
47815;BME280;33579;50.058;18.130;2023-05-11T02:40:57;99331.59;;;11.99;100.00
47815;BME280;33579;50.058;18.130;2023-05-11T02:42:11;99330.75;;;11.98;100.00
47815;BME280;33579;50.058;18.130;2023-05-11T02:43:19;99336.63;;;12.02;100.00
47815;BME280;33579;50.058;18.130;2023-05-11T02:44:30;99337.00;;;12.07;100.00
47815;BME280;33579;50.058;18.130;2023-05-11T02:45:33;99342.03;;;12.10;100.00
47815;BME280;33579;50.058;18.130;2023-05-11T02:46:37;99338.84;;;12.06;100.00
47815;BME280;33579;50.058;18.130;2023-05-11T02:48:07;99343.94;;;12.08;100.00
47815;BME280;33579;50.058;18.130;2023-05-11T02:49:10;99339.66;;;12.07;100.00
47815;BME280;33579;50.058;18.130;2023-05-11T02:50:13;99330.78;;;12.08;100.00
47815;BME280;33579;50.058;18.130;2023-05-11T02:51:21;99335.34;;;12.06;100.00
47815;BME280;33579;50.058;18.130;2023-05-11T02:52:26;99336.03;;;12.08;100.00
47815;BME280;33579;50.058;18.130;2023-05-11T02:53:29;99332.44;;;12.09;100.00
47815;BME280;33579;50.058;18.130;2023-05-11T02:54:35;99330.34;;;11.93;100.00
47815;BME280;33579;50.058;18.130;2023-05-11T02:55:37;99332.97;;;11.83;100.00
47815;BME280;33579;50.058;18.130;2023-05-11T02:56:40;99335.06;;;11.79;100.00
47815;BME280;33579;50.058;18.130;2023-05-11T02:57:43;99340.91;;;11.93;100.00
47815;BME280;33579;50.058;18.130;2023-05-11T02:58:45;99336.47;;;12.03;100.00
47815;BME280;33579;50.058;18.130;2023-05-11T02:59:52;99337.31;;;12.04;100.00
47815;BME280;33579;50.058;18.130;2023-05-11T03:00:54;99334.78;;;12.02;100.00
47815;BME280;33579;50.058;18.130;2023-05-11T03:01:55;99336.72;;;12.00;100.00
47815;BME280;33579;50.058;18.130;2023-05-11T03:02:58;99331.59;;;11.99;100.00
47815;BME280;33579;50.058;18.130;2023-05-11T03:04:03;99333.50;;;11.97;100.00
47815;BME280;33579;50.058;18.130;2023-05-11T03:05:05;99333.38;;;11.98;100.00
47815;BME280;33579;50.058;18.130;2023-05-11T03:06:08;99335.22;;;11.98;100.00
47815;BME280;33579;50.058;18.130;2023-05-11T03:07:10;99327.81;;;12.01;100.00
47815;BME280;33579;50.058;18.130;2023-05-11T03:08:12;99336.16;;;11.97;100.00
47815;BME280;33579;50.058;18.130;2023-05-11T03:09:14;99323.25;;;11.93;100.00
47815;BME280;33579;50.058;18.130;2023-05-11T03:10:19;99331.59;;;11.99;100.00
47815;BME280;33579;50.058;18.130;2023-05-11T03:11:22;99330.63;;;12.00;100.00
47815;BME280;33579;50.058;18.130;2023-05-11T03:12:24;99327.97;;;12.00;100.00
47815;BME280;33579;50.058;18.130;2023-05-11T03:13:26;99320.63;;;12.03;100.00
47815;BME280;33579;50.058;18.130;2023-05-11T03:14:33;99325.91;;;12.13;100.00
47815;BME280;33579;50.058;18.130;2023-05-11T03:15:36;99327.03;;;12.11;100.00
47815;BME280;33579;50.058;18.130;2023-05-11T03:16:39;99328.28;;;12.06;100.00
47815;BME280;33579;50.058;18.130;2023-05-11T03:17:42;99333.69;;;12.05;100.00
47815;BME280;33579;50.058;18.130;2023-05-11T03:18:48;99319.09;;;12.01;100.00
47815;BME280;33579;50.058;18.130;2023-05-11T03:19:52;99323.13;;;11.95;100.00
47815;BME280;33579;50.058;18.130;2023-05-11T03:20:55;99329.38;;;11.94;100.00
47815;BME280;33579;50.058;18.130;2023-05-11T03:21:58;99325.50;;;11.88;100.00
47815;BME280;33579;50.058;18.130;2023-05-11T03:23:00;99323.41;;;11.82;100.00
47815;BME280;33579;50.058;18.130;2023-05-11T03:24:05;99326.31;;;11.79;100.00
47815;BME280;33579;50.058;18.130;2023-05-11T03:25:07;99335.03;;;11.70;100.00
47815;BME280;33579;50.058;18.130;2023-05-11T03:26:10;99325.31;;;11.60;100.00
47815;BME280;33579;50.058;18.130;2023-05-11T03:27:13;99329.47;;;11.63;100.00
47815;BME280;33579;50.058;18.130;2023-05-11T03:28:18;99330.06;;;11.57;100.00
47815;BME280;33579;50.058;18.130;2023-05-11T03:29:30;99325.19;;;11.52;100.00
47815;BME280;33579;50.058;18.130;2023-05-11T03:30:33;99328.75;;;11.41;100.00
47815;BME280;33579;50.058;18.130;2023-05-11T03:31:35;99334.19;;;11.39;100.00
47815;BME280;33579;50.058;18.130;2023-05-11T03:32:37;99330.69;;;11.39;100.00
47815;BME280;33579;50.058;18.130;2023-05-11T03:33:40;99333.22;;;11.41;100.00
47815;BME280;33579;50.058;18.130;2023-05-11T03:34:42;99327.09;;;11.40;100.00
47815;BME280;33579;50.058;18.130;2023-05-11T03:35:48;99328.50;;;11.54;100.00
47815;BME280;33579;50.058;18.130;2023-05-11T03:36:53;99327.94;;;11.60;100.00
47815;BME280;33579;50.058;18.130;2023-05-11T03:37:57;99329.66;;;11.61;100.00
47815;BME280;33579;50.058;18.130;2023-05-11T03:39:00;99338.25;;;11.63;100.00
47815;BME280;33579;50.058;18.130;2023-05-11T03:40:06;99328.78;;;11.61;100.00
47815;BME280;33579;50.058;18.130;2023-05-11T03:41:19;99336.81;;;11.59;100.00
47815;BME280;33579;50.058;18.130;2023-05-11T03:42:25;99332.41;;;11.50;100.00
47815;BME280;33579;50.058;18.130;2023-05-11T03:43:29;99331.69;;;11.48;100.00
47815;BME280;33579;50.058;18.130;2023-05-11T03:44:32;99330.72;;;11.49;100.00
47815;BME280;33579;50.058;18.130;2023-05-11T03:45:35;99330.88;;;11.57;100.00
47815;BME280;33579;50.058;18.130;2023-05-11T03:46:40;99331.72;;;11.67;100.00
47815;BME280;33579;50.058;18.130;2023-05-11T03:47:43;99328.78;;;11.71;100.00
47815;BME280;33579;50.058;18.130;2023-05-11T03:48:47;99328.38;;;11.65;100.00
47815;BME280;33579;50.058;18.130;2023-05-11T03:49:56;99333.22;;;11.60;100.00
47815;BME280;33579;50.058;18.130;2023-05-11T03:50:59;99325.75;;;11.56;100.00
47815;BME280;33579;50.058;18.130;2023-05-11T03:52:01;99330.31;;;11.53;100.00
47815;BME280;33579;50.058;18.130;2023-05-11T03:53:03;99339.19;;;11.52;100.00
47815;BME280;33579;50.058;18.130;2023-05-11T03:54:05;99333.91;;;11.52;100.00
47815;BME280;33579;50.058;18.130;2023-05-11T03:55:08;99333.78;;;11.44;100.00
47815;BME280;33579;50.058;18.130;2023-05-11T03:56:10;99333.03;;;11.32;100.00
47815;BME280;33579;50.058;18.130;2023-05-11T03:57:13;99332.47;;;11.29;100.00
47815;BME280;33579;50.058;18.130;2023-05-11T03:58:15;99334.41;;;11.27;100.00
47815;BME280;33579;50.058;18.130;2023-05-11T03:59:17;99333.44;;;11.18;100.00
47815;BME280;33579;50.058;18.130;2023-05-11T04:00:18;99335.75;;;11.11;100.00
47815;BME280;33579;50.058;18.130;2023-05-11T04:01:21;99335.06;;;11.09;100.00
47815;BME280;33579;50.058;18.130;2023-05-11T04:02:22;99339.94;;;11.14;100.00
47815;BME280;33579;50.058;18.130;2023-05-11T04:03:24;99340.75;;;11.14;100.00
47815;BME280;33579;50.058;18.130;2023-05-11T04:04:29;99341.16;;;11.09;100.00
47815;BME280;33579;50.058;18.130;2023-05-11T04:05:33;99338.78;;;11.06;100.00
47815;BME280;33579;50.058;18.130;2023-05-11T04:06:37;99339.88;;;11.04;100.00
47815;BME280;33579;50.058;18.130;2023-05-11T04:07:49;99340.72;;;11.04;100.00
47815;BME280;33579;50.058;18.130;2023-05-11T04:08:52;99338.78;;;11.06;100.00
47815;BME280;33579;50.058;18.130;2023-05-11T04:09:54;99341.31;;;11.08;100.00
47815;BME280;33579;50.058;18.130;2023-05-11T04:10:56;99344.06;;;11.06;100.00
47815;BME280;33579;50.058;18.130;2023-05-11T04:11:57;99343.47;;;11.03;100.00
47815;BME280;33579;50.058;18.130;2023-05-11T04:12:59;99349.59;;;11.03;100.00
47815;BME280;33579;50.058;18.130;2023-05-11T04:14:00;99347.38;;;11.08;100.00
47815;BME280;33579;50.058;18.130;2023-05-11T04:15:02;99347.16;;;11.12;100.00
47815;BME280;33579;50.058;18.130;2023-05-11T04:16:04;99350.72;;;11.10;100.00
47815;BME280;33579;50.058;18.130;2023-05-11T04:17:06;99340.59;;;11.06;100.00
47815;BME280;33579;50.058;18.130;2023-05-11T04:18:07;99341.16;;;11.09;100.00
47815;BME280;33579;50.058;18.130;2023-05-11T04:19:09;99346.72;;;11.16;100.00
47815;BME280;33579;50.058;18.130;2023-05-11T04:20:11;99349.22;;;11.18;100.00
47815;BME280;33579;50.058;18.130;2023-05-11T04:21:12;99347.97;;;11.22;100.00
47815;BME280;33579;50.058;18.130;2023-05-11T04:22:15;99343.47;;;11.34;100.00
47815;BME280;33579;50.058;18.130;2023-05-11T04:23:17;99344.72;;;11.39;100.00
47815;BME280;33579;50.058;18.130;2023-05-11T04:24:18;99339.47;;;11.49;100.00
47815;BME280;33579;50.058;18.130;2023-05-11T04:25:20;99357.50;;;11.54;100.00
47815;BME280;33579;50.058;18.130;2023-05-11T04:26:21;99353.72;;;11.47;100.00
47815;BME280;33579;50.058;18.130;2023-05-11T04:27:23;99350.41;;;11.45;100.00
47815;BME280;33579;50.058;18.130;2023-05-11T04:28:24;99352.22;;;11.54;100.00
47815;BME280;33579;50.058;18.130;2023-05-11T04:29:26;99347.53;;;11.58;100.00
47815;BME280;33579;50.058;18.130;2023-05-11T04:30:27;99351.81;;;11.59;100.00
47815;BME280;33579;50.058;18.130;2023-05-11T04:31:30;99350.44;;;11.55;100.00
47815;BME280;33579;50.058;18.130;2023-05-11T04:32:32;99350.28;;;11.46;100.00
47815;BME280;33579;50.058;18.130;2023-05-11T04:33:33;99349.59;;;11.44;100.00
47815;BME280;33579;50.058;18.130;2023-05-11T04:34:35;99352.09;;;11.56;100.00
47815;BME280;33579;50.058;18.130;2023-05-11T04:35:38;99353.34;;;11.61;100.00
47815;BME280;33579;50.058;18.130;2023-05-11T04:36:40;99354.75;;;11.65;100.00
47815;BME280;33579;50.058;18.130;2023-05-11T04:37:42;99356.41;;;11.66;100.00
47815;BME280;33579;50.058;18.130;2023-05-11T04:38:43;99352.78;;;11.67;100.00
47815;BME280;33579;50.058;18.130;2023-05-11T04:39:45;99349.06;;;11.70;100.00
47815;BME280;33579;50.058;18.130;2023-05-11T04:40:47;99353.66;;;11.78;100.00
47815;BME280;33579;50.058;18.130;2023-05-11T04:41:49;99346.31;;;11.81;100.00
47815;BME280;33579;50.058;18.130;2023-05-11T04:42:51;99349.63;;;11.84;100.00
47815;BME280;33579;50.058;18.130;2023-05-11T04:43:53;99353.63;;;11.88;100.00
47815;BME280;33579;50.058;18.130;2023-05-11T04:44:55;99351.69;;;11.90;100.00
47815;BME280;33579;50.058;18.130;2023-05-11T04:45:56;99360.84;;;11.95;100.00
47815;BME280;33579;50.058;18.130;2023-05-11T04:47:00;99358.22;;;11.95;100.00
47815;BME280;33579;50.058;18.130;2023-05-11T04:48:02;99356.00;;;12.01;100.00
47815;BME280;33579;50.058;18.130;2023-05-11T04:49:04;99357.44;;;12.05;100.00
47815;BME280;33579;50.058;18.130;2023-05-11T04:50:07;99360.75;;;12.07;100.00
47815;BME280;33579;50.058;18.130;2023-05-11T04:51:09;99362.16;;;12.11;100.00
47815;BME280;33579;50.058;18.130;2023-05-11T04:52:15;99363.25;;;12.18;100.00
47815;BME280;33579;50.058;18.130;2023-05-11T04:53:20;99357.56;;;12.23;100.00
47815;BME280;33579;50.058;18.130;2023-05-11T04:54:21;99364.06;;;12.29;100.00
47815;BME280;33579;50.058;18.130;2023-05-11T04:55:23;99360.88;;;12.35;100.00
47815;BME280;33579;50.058;18.130;2023-05-11T04:56:27;99363.63;;;12.43;100.00
47815;BME280;33579;50.058;18.130;2023-05-11T04:57:28;99359.59;;;12.49;100.00
47815;BME280;33579;50.058;18.130;2023-05-11T04:58:30;99362.66;;;12.54;100.00
47815;BME280;33579;50.058;18.130;2023-05-11T04:59:31;99363.34;;;12.56;100.00
47815;BME280;33579;50.058;18.130;2023-05-11T05:00:33;99363.03;;;12.59;100.00
47815;BME280;33579;50.058;18.130;2023-05-11T05:01:35;99366.78;;;12.67;100.00
47815;BME280;33579;50.058;18.130;2023-05-11T05:02:36;99367.19;;;12.72;100.00
47815;BME280;33579;50.058;18.130;2023-05-11T05:03:39;99356.06;;;12.78;100.00
47815;BME280;33579;50.058;18.130;2023-05-11T05:04:40;99363.38;;;12.84;100.00
47815;BME280;33579;50.058;18.130;2023-05-11T05:05:42;99361.13;;;12.89;100.00
47815;BME280;33579;50.058;18.130;2023-05-11T05:06:43;99361.97;;;12.90;100.00
47815;BME280;33579;50.058;18.130;2023-05-11T05:07:48;99357.56;;;12.90;100.00
47815;BME280;33579;50.058;18.130;2023-05-11T05:08:50;99364.63;;;12.90;100.00
47815;BME280;33579;50.058;18.130;2023-05-11T05:09:53;99366.72;;;12.86;100.00
47815;BME280;33579;50.058;18.130;2023-05-11T05:10:55;99372.13;;;12.95;100.00
47815;BME280;33579;50.058;18.130;2023-05-11T05:11:57;99367.63;;;13.05;100.00
47815;BME280;33579;50.058;18.130;2023-05-11T05:12:59;99370.09;;;13.16;100.00
47815;BME280;33579;50.058;18.130;2023-05-11T05:14:00;99364.88;;;13.25;100.00
47815;BME280;33579;50.058;18.130;2023-05-11T05:15:03;99366.09;;;13.30;100.00
47815;BME280;33579;50.058;18.130;2023-05-11T05:16:04;99367.63;;;13.33;100.00
47815;BME280;33579;50.058;18.130;2023-05-11T05:17:06;99361.50;;;13.32;100.00
47815;BME280;33579;50.058;18.130;2023-05-11T05:18:08;99366.50;;;13.35;100.00
47815;BME280;33579;50.058;18.130;2023-05-11T05:19:10;99374.53;;;13.44;100.00
47815;BME280;33579;50.058;18.130;2023-05-11T05:20:11;99367.03;;;13.49;100.00
47815;BME280;33579;50.058;18.130;2023-05-11T05:21:13;99360.84;;;13.58;100.00
47815;BME280;33579;50.058;18.130;2023-05-11T05:22:14;99364.53;;;13.66;100.00
47815;BME280;33579;50.058;18.130;2023-05-11T05:23:16;99359.19;;;13.75;100.00
47815;BME280;33579;50.058;18.130;2023-05-11T05:24:18;99363.56;;;13.85;100.00
47815;BME280;33579;50.058;18.130;2023-05-11T05:25:19;99367.81;;;13.96;100.00
47815;BME280;33579;50.058;18.130;2023-05-11T05:26:21;99371.81;;;14.00;99.75
47815;BME280;33579;50.058;18.130;2023-05-11T05:27:24;99371.69;;;14.01;98.66
47815;BME280;33579;50.058;18.130;2023-05-11T05:28:26;99374.16;;;14.03;98.28
47815;BME280;33579;50.058;18.130;2023-05-11T05:29:27;99373.47;;;14.01;97.39
47815;BME280;33579;50.058;18.130;2023-05-11T05:30:29;99374.47;;;14.00;96.84
47815;BME280;33579;50.058;18.130;2023-05-11T05:31:31;99371.13;;;13.98;97.62
47815;BME280;33579;50.058;18.130;2023-05-11T05:32:33;99370.53;;;14.04;97.59
47815;BME280;33579;50.058;18.130;2023-05-11T05:33:34;99371.91;;;14.08;97.74
47815;BME280;33579;50.058;18.130;2023-05-11T05:34:36;99372.72;;;14.09;97.40
47815;BME280;33579;50.058;18.130;2023-05-11T05:35:37;99368.94;;;14.11;97.51
47815;BME280;33579;50.058;18.130;2023-05-11T05:36:39;99374.44;;;14.18;97.26
47815;BME280;33579;50.058;18.130;2023-05-11T05:37:41;99372.69;;;14.27;96.42
47815;BME280;33579;50.058;18.130;2023-05-11T05:38:42;99370.81;;;14.19;96.43
47815;BME280;33579;50.058;18.130;2023-05-11T05:39:44;99371.19;;;14.24;96.42
47815;BME280;33579;50.058;18.130;2023-05-11T05:40:48;99371.19;;;14.24;97.19